sensor_id;sensor_type;location;lat;lon;timestamp;temperature;humidity
17208;DHT22;8720;48.488;9.202;2022-12-07T00:01:04;6.90;57.60
17208;DHT22;8720;48.488;9.202;2022-12-07T00:03:32;6.90;57.50
17208;DHT22;8720;48.488;9.202;2022-12-07T00:06:00;7.00;57.70
17208;DHT22;8720;48.488;9.202;2022-12-07T00:08:28;7.00;57.70
17208;DHT22;8720;48.488;9.202;2022-12-07T00:11:00;7.00;57.70
17208;DHT22;8720;48.488;9.202;2022-12-07T00:13:31;7.00;57.60
17208;DHT22;8720;48.488;9.202;2022-12-07T00:16:00;7.00;57.60
17208;DHT22;8720;48.488;9.202;2022-12-07T00:18:28;7.00;57.60
17208;DHT22;8720;48.488;9.202;2022-12-07T00:20:59;7.00;57.60
17208;DHT22;8720;48.488;9.202;2022-12-07T00:23:28;7.00;57.40
17208;DHT22;8720;48.488;9.202;2022-12-07T00:25:55;7.00;57.50
17208;DHT22;8720;48.488;9.202;2022-12-07T00:28:23;7.00;57.50
17208;DHT22;8720;48.488;9.202;2022-12-07T00:30:51;7.00;57.50
17208;DHT22;8720;48.488;9.202;2022-12-07T00:33:18;7.00;58.10
17208;DHT22;8720;48.488;9.202;2022-12-07T00:35:45;7.00;57.50
17208;DHT22;8720;48.488;9.202;2022-12-07T00:38:13;7.00;57.60
17208;DHT22;8720;48.488;9.202;2022-12-07T00:40:40;7.00;57.50
17208;DHT22;8720;48.488;9.202;2022-12-07T00:43:07;7.00;57.50
17208;DHT22;8720;48.488;9.202;2022-12-07T00:45:34;6.90;57.30
17208;DHT22;8720;48.488;9.202;2022-12-07T00:48:03;6.90;57.30
17208;DHT22;8720;48.488;9.202;2022-12-07T00:50:30;6.90;57.30
17208;DHT22;8720;48.488;9.202;2022-12-07T00:52:57;6.90;57.30
17208;DHT22;8720;48.488;9.202;2022-12-07T00:55:25;6.90;57.30
17208;DHT22;8720;48.488;9.202;2022-12-07T00:57:52;7.00;57.50
17208;DHT22;8720;48.488;9.202;2022-12-07T01:00:19;6.90;57.40
17208;DHT22;8720;48.488;9.202;2022-12-07T01:02:46;6.90;57.30
17208;DHT22;8720;48.488;9.202;2022-12-07T01:05:15;6.90;57.40
17208;DHT22;8720;48.488;9.202;2022-12-07T01:07:42;6.90;57.30
17208;DHT22;8720;48.488;9.202;2022-12-07T01:10:10;6.90;57.40
17208;DHT22;8720;48.488;9.202;2022-12-07T01:12:37;6.90;57.50
17208;DHT22;8720;48.488;9.202;2022-12-07T01:15:06;6.90;57.60
17208;DHT22;8720;48.488;9.202;2022-12-07T01:17:34;6.90;57.60
17208;DHT22;8720;48.488;9.202;2022-12-07T01:20:02;6.90;57.70
17208;DHT22;8720;48.488;9.202;2022-12-07T01:22:31;6.90;57.80
17208;DHT22;8720;48.488;9.202;2022-12-07T01:25:04;6.90;57.80
17208;DHT22;8720;48.488;9.202;2022-12-07T01:27:32;6.90;57.70
17208;DHT22;8720;48.488;9.202;2022-12-07T01:29:59;6.90;57.70
17208;DHT22;8720;48.488;9.202;2022-12-07T01:32:27;6.90;57.70
17208;DHT22;8720;48.488;9.202;2022-12-07T01:34:55;6.90;57.80
17208;DHT22;8720;48.488;9.202;2022-12-07T01:37:22;6.90;57.80
17208;DHT22;8720;48.488;9.202;2022-12-07T01:39:52;6.90;57.80
17208;DHT22;8720;48.488;9.202;2022-12-07T01:42:19;6.90;57.70
17208;DHT22;8720;48.488;9.202;2022-12-07T01:48:14;6.90;57.40
17208;DHT22;8720;48.488;9.202;2022-12-07T01:50:47;6.90;57.60
17208;DHT22;8720;48.488;9.202;2022-12-07T01:53:17;6.90;57.60
17208;DHT22;8720;48.488;9.202;2022-12-07T01:55:49;6.90;57.60
17208;DHT22;8720;48.488;9.202;2022-12-07T01:58:20;6.90;57.60
17208;DHT22;8720;48.488;9.202;2022-12-07T02:00:48;6.90;57.70
17208;DHT22;8720;48.488;9.202;2022-12-07T02:03:19;6.90;57.70
17208;DHT22;8720;48.488;9.202;2022-12-07T02:05:51;6.90;57.60
17208;DHT22;8720;48.488;9.202;2022-12-07T02:08:21;6.90;57.70
17208;DHT22;8720;48.488;9.202;2022-12-07T02:10:50;6.90;57.80
17208;DHT22;8720;48.488;9.202;2022-12-07T02:13:20;6.90;57.80
17208;DHT22;8720;48.488;9.202;2022-12-07T02:16:03;6.90;57.80
17208;DHT22;8720;48.488;9.202;2022-12-07T02:18:50;6.90;57.60
17208;DHT22;8720;48.488;9.202;2022-12-07T02:21:31;6.90;57.70
17208;DHT22;8720;48.488;9.202;2022-12-07T02:24:15;6.90;57.60
17208;DHT22;8720;48.488;9.202;2022-12-07T02:27:17;6.90;57.70
17208;DHT22;8720;48.488;9.202;2022-12-07T02:30:03;6.90;57.70
17208;DHT22;8720;48.488;9.202;2022-12-07T02:32:40;6.90;57.70
17208;DHT22;8720;48.488;9.202;2022-12-07T02:35:15;6.90;57.70
17208;DHT22;8720;48.488;9.202;2022-12-07T02:37:53;6.90;57.80
17208;DHT22;8720;48.488;9.202;2022-12-07T02:40:31;6.80;57.60
17208;DHT22;8720;48.488;9.202;2022-12-07T02:43:07;6.80;57.70
17208;DHT22;8720;48.488;9.202;2022-12-07T02:45:41;6.80;57.80
17208;DHT22;8720;48.488;9.202;2022-12-07T02:48:13;6.80;57.80
17208;DHT22;8720;48.488;9.202;2022-12-07T02:50:45;6.80;57.90
17208;DHT22;8720;48.488;9.202;2022-12-07T02:53:29;6.80;58.00
17208;DHT22;8720;48.488;9.202;2022-12-07T02:55:58;6.80;57.80
17208;DHT22;8720;48.488;9.202;2022-12-07T02:58:40;6.80;57.90
17208;DHT22;8720;48.488;9.202;2022-12-07T03:06:49;6.80;57.90
17208;DHT22;8720;48.488;9.202;2022-12-07T03:09:25;6.80;58.00
17208;DHT22;8720;48.488;9.202;2022-12-07T03:12:03;6.80;58.10
17208;DHT22;8720;48.488;9.202;2022-12-07T03:14:41;6.80;58.10
17208;DHT22;8720;48.488;9.202;2022-12-07T03:17:15;6.80;58.00
17208;DHT22;8720;48.488;9.202;2022-12-07T03:19:51;6.80;58.70
17208;DHT22;8720;48.488;9.202;2022-12-07T03:22:25;6.80;58.00
17208;DHT22;8720;48.488;9.202;2022-12-07T03:25:00;6.70;58.00
17208;DHT22;8720;48.488;9.202;2022-12-07T03:27:32;6.70;58.10
17208;DHT22;8720;48.488;9.202;2022-12-07T03:30:06;6.70;58.10
17208;DHT22;8720;48.488;9.202;2022-12-07T03:32:40;6.70;58.20
17208;DHT22;8720;48.488;9.202;2022-12-07T03:35:14;6.70;58.20
17208;DHT22;8720;48.488;9.202;2022-12-07T03:37:50;6.60;58.10
17208;DHT22;8720;48.488;9.202;2022-12-07T03:40:25;6.60;58.10
17208;DHT22;8720;48.488;9.202;2022-12-07T03:43:01;6.60;57.90
17208;DHT22;8720;48.488;9.202;2022-12-07T03:45:37;6.60;57.80
17208;DHT22;8720;48.488;9.202;2022-12-07T03:48:10;6.50;57.50
17208;DHT22;8720;48.488;9.202;2022-12-07T03:50:52;6.50;57.60
17208;DHT22;8720;48.488;9.202;2022-12-07T03:53:33;6.50;57.30
17208;DHT22;8720;48.488;9.202;2022-12-07T03:56:05;6.50;57.10
17208;DHT22;8720;48.488;9.202;2022-12-07T03:58:35;6.50;57.10
17208;DHT22;8720;48.488;9.202;2022-12-07T04:01:03;6.50;57.10
17208;DHT22;8720;48.488;9.202;2022-12-07T04:03:31;6.50;57.00
17208;DHT22;8720;48.488;9.202;2022-12-07T04:05:59;6.50;56.90
17208;DHT22;8720;48.488;9.202;2022-12-07T04:08:27;6.50;56.80
17208;DHT22;8720;48.488;9.202;2022-12-07T04:10:54;6.50;56.80
17208;DHT22;8720;48.488;9.202;2022-12-07T04:13:21;6.50;56.80
17208;DHT22;8720;48.488;9.202;2022-12-07T04:15:48;6.50;56.80
17208;DHT22;8720;48.488;9.202;2022-12-07T04:18:16;6.50;56.80
17208;DHT22;8720;48.488;9.202;2022-12-07T04:20:43;6.40;56.90
17208;DHT22;8720;48.488;9.202;2022-12-07T04:23:11;6.50;57.10
17208;DHT22;8720;48.488;9.202;2022-12-07T04:25:38;6.40;57.00
17208;DHT22;8720;48.488;9.202;2022-12-07T04:28:05;6.40;57.10
17208;DHT22;8720;48.488;9.202;2022-12-07T04:30:33;6.40;57.20
17208;DHT22;8720;48.488;9.202;2022-12-07T04:33:00;6.40;57.30
17208;DHT22;8720;48.488;9.202;2022-12-07T04:35:27;6.40;58.00
17208;DHT22;8720;48.488;9.202;2022-12-07T04:37:54;6.30;57.30
17208;DHT22;8720;48.488;9.202;2022-12-07T04:40:23;6.30;57.30
17208;DHT22;8720;48.488;9.202;2022-12-07T04:42:50;6.30;57.30
17208;DHT22;8720;48.488;9.202;2022-12-07T04:45:17;6.30;57.30
17208;DHT22;8720;48.488;9.202;2022-12-07T04:47:44;6.30;57.30
17208;DHT22;8720;48.488;9.202;2022-12-07T04:50:11;6.30;57.30
17208;DHT22;8720;48.488;9.202;2022-12-07T04:52:38;6.30;57.30
17208;DHT22;8720;48.488;9.202;2022-12-07T04:55:06;6.20;57.30
17208;DHT22;8720;48.488;9.202;2022-12-07T04:57:35;6.20;57.30
17208;DHT22;8720;48.488;9.202;2022-12-07T05:00:03;6.20;57.30
17208;DHT22;8720;48.488;9.202;2022-12-07T05:02:30;6.20;57.40
17208;DHT22;8720;48.488;9.202;2022-12-07T05:04:58;6.20;57.50
17208;DHT22;8720;48.488;9.202;2022-12-07T05:07:25;6.20;57.50
17208;DHT22;8720;48.488;9.202;2022-12-07T05:09:52;6.10;57.40
17208;DHT22;8720;48.488;9.202;2022-12-07T05:12:19;6.10;57.40
17208;DHT22;8720;48.488;9.202;2022-12-07T05:14:48;6.10;57.40
17208;DHT22;8720;48.488;9.202;2022-12-07T05:17:15;6.10;57.40
17208;DHT22;8720;48.488;9.202;2022-12-07T05:19:42;6.10;57.40
17208;DHT22;8720;48.488;9.202;2022-12-07T05:22:09;6.00;57.30
17208;DHT22;8720;48.488;9.202;2022-12-07T05:24:37;6.00;57.20
17208;DHT22;8720;48.488;9.202;2022-12-07T05:27:04;6.00;57.10
17208;DHT22;8720;48.488;9.202;2022-12-07T05:29:31;6.00;57.10
17208;DHT22;8720;48.488;9.202;2022-12-07T05:32:00;5.90;57.00
17208;DHT22;8720;48.488;9.202;2022-12-07T05:34:27;5.90;57.10
17208;DHT22;8720;48.488;9.202;2022-12-07T05:36:54;5.80;57.20
17208;DHT22;8720;48.488;9.202;2022-12-07T05:39:21;5.80;57.30
17208;DHT22;8720;48.488;9.202;2022-12-07T05:41:48;5.80;57.30
17208;DHT22;8720;48.488;9.202;2022-12-07T05:44:33;5.80;57.30
17208;DHT22;8720;48.488;9.202;2022-12-07T05:47:02;5.70;57.20
17208;DHT22;8720;48.488;9.202;2022-12-07T05:49:29;5.70;57.00
17208;DHT22;8720;48.488;9.202;2022-12-07T05:51:57;5.70;57.00
17208;DHT22;8720;48.488;9.202;2022-12-07T05:54:24;5.60;56.80
17208;DHT22;8720;48.488;9.202;2022-12-07T05:56:51;5.60;56.60
17208;DHT22;8720;48.488;9.202;2022-12-07T05:59:19;5.50;56.30
17208;DHT22;8720;48.488;9.202;2022-12-07T06:01:48;5.40;56.20
17208;DHT22;8720;48.488;9.202;2022-12-07T06:04:17;5.40;56.10
17208;DHT22;8720;48.488;9.202;2022-12-07T06:06:45;5.30;56.10
17208;DHT22;8720;48.488;9.202;2022-12-07T06:09:12;5.20;56.10
17208;DHT22;8720;48.488;9.202;2022-12-07T06:11:40;5.10;56.10
17208;DHT22;8720;48.488;9.202;2022-12-07T06:14:25;5.00;56.10
17208;DHT22;8720;48.488;9.202;2022-12-07T06:16:52;4.90;56.10
17208;DHT22;8720;48.488;9.202;2022-12-07T06:19:21;4.80;56.10
17208;DHT22;8720;48.488;9.202;2022-12-07T06:21:48;4.70;56.10
17208;DHT22;8720;48.488;9.202;2022-12-07T06:24:16;4.70;56.30
17208;DHT22;8720;48.488;9.202;2022-12-07T06:26:43;4.60;56.30
17208;DHT22;8720;48.488;9.202;2022-12-07T06:29:11;4.50;56.40
17208;DHT22;8720;48.488;9.202;2022-12-07T06:31:39;4.50;56.50
17208;DHT22;8720;48.488;9.202;2022-12-07T06:34:10;4.40;56.50
17208;DHT22;8720;48.488;9.202;2022-12-07T06:36:40;4.40;56.60
17208;DHT22;8720;48.488;9.202;2022-12-07T06:39:08;4.30;56.60
17208;DHT22;8720;48.488;9.202;2022-12-07T06:41:35;4.30;56.60
17208;DHT22;8720;48.488;9.202;2022-12-07T06:44:03;4.20;56.50
17208;DHT22;8720;48.488;9.202;2022-12-07T06:46:31;4.20;56.60
17208;DHT22;8720;48.488;9.202;2022-12-07T06:49:01;4.20;56.60
17208;DHT22;8720;48.488;9.202;2022-12-07T06:51:28;4.10;56.50
17208;DHT22;8720;48.488;9.202;2022-12-07T06:53:57;4.10;56.50
17208;DHT22;8720;48.488;9.202;2022-12-07T06:56:24;4.10;56.50
17208;DHT22;8720;48.488;9.202;2022-12-07T06:58:51;4.00;56.40
17208;DHT22;8720;48.488;9.202;2022-12-07T07:01:18;4.00;56.50
17208;DHT22;8720;48.488;9.202;2022-12-07T07:03:47;4.00;56.50
17208;DHT22;8720;48.488;9.202;2022-12-07T07:06:14;4.00;56.60
17208;DHT22;8720;48.488;9.202;2022-12-07T07:08:42;4.00;56.60
17208;DHT22;8720;48.488;9.202;2022-12-07T07:11:11;4.10;56.60
17208;DHT22;8720;48.488;9.202;2022-12-07T07:13:38;4.10;56.50
17208;DHT22;8720;48.488;9.202;2022-12-07T07:16:07;4.10;56.60
17208;DHT22;8720;48.488;9.202;2022-12-07T07:18:35;4.10;56.60
17208;DHT22;8720;48.488;9.202;2022-12-07T07:21:03;4.10;56.90
17208;DHT22;8720;48.488;9.202;2022-12-07T07:23:30;4.20;56.80
17208;DHT22;8720;48.488;9.202;2022-12-07T07:25:58;4.20;56.80
17208;DHT22;8720;48.488;9.202;2022-12-07T07:28:26;4.20;56.90
17208;DHT22;8720;48.488;9.202;2022-12-07T07:30:54;4.30;56.90
17208;DHT22;8720;48.488;9.202;2022-12-07T07:33:21;4.30;57.00
17208;DHT22;8720;48.488;9.202;2022-12-07T07:35:48;4.40;57.20
17208;DHT22;8720;48.488;9.202;2022-12-07T07:38:15;4.40;57.50
17208;DHT22;8720;48.488;9.202;2022-12-07T07:40:42;4.40;57.60
17208;DHT22;8720;48.488;9.202;2022-12-07T07:43:10;4.50;57.80
17208;DHT22;8720;48.488;9.202;2022-12-07T07:45:38;4.50;57.90
17208;DHT22;8720;48.488;9.202;2022-12-07T07:48:06;4.50;57.90
17208;DHT22;8720;48.488;9.202;2022-12-07T07:50:33;4.60;58.00
17208;DHT22;8720;48.488;9.202;2022-12-07T07:53:00;4.60;57.90
17208;DHT22;8720;48.488;9.202;2022-12-07T07:55:27;4.70;58.00
17208;DHT22;8720;48.488;9.202;2022-12-07T07:57:55;4.70;57.90
17208;DHT22;8720;48.488;9.202;2022-12-07T08:00:22;4.70;57.70
17208;DHT22;8720;48.488;9.202;2022-12-07T08:02:51;4.80;57.60
17208;DHT22;8720;48.488;9.202;2022-12-07T08:05:18;4.80;57.30
17208;DHT22;8720;48.488;9.202;2022-12-07T08:07:45;4.80;57.30
17208;DHT22;8720;48.488;9.202;2022-12-07T08:10:13;4.80;57.40
17208;DHT22;8720;48.488;9.202;2022-12-07T08:12:42;4.90;57.50
17208;DHT22;8720;48.488;9.202;2022-12-07T08:15:43;4.90;57.50
17208;DHT22;8720;48.488;9.202;2022-12-07T08:18:14;5.00;57.50
17208;DHT22;8720;48.488;9.202;2022-12-07T08:20:42;4.90;57.40
17208;DHT22;8720;48.488;9.202;2022-12-07T08:23:09;5.00;57.60
17208;DHT22;8720;48.488;9.202;2022-12-07T08:25:37;5.10;57.70
17208;DHT22;8720;48.488;9.202;2022-12-07T08:28:06;5.10;57.70
17208;DHT22;8720;48.488;9.202;2022-12-07T08:30:34;5.10;57.80
17208;DHT22;8720;48.488;9.202;2022-12-07T08:33:01;5.20;57.80
17208;DHT22;8720;48.488;9.202;2022-12-07T08:35:32;5.30;57.80
17208;DHT22;8720;48.488;9.202;2022-12-07T08:38:00;5.30;57.70
17208;DHT22;8720;48.488;9.202;2022-12-07T08:40:27;5.40;57.70
17208;DHT22;8720;48.488;9.202;2022-12-07T08:42:55;5.40;57.70
17208;DHT22;8720;48.488;9.202;2022-12-07T08:45:22;5.50;57.60
17208;DHT22;8720;48.488;9.202;2022-12-07T08:47:52;5.60;57.60
17208;DHT22;8720;48.488;9.202;2022-12-07T08:50:23;5.60;57.40
17208;DHT22;8720;48.488;9.202;2022-12-07T08:52:54;5.70;58.10
17208;DHT22;8720;48.488;9.202;2022-12-07T08:55:24;5.80;57.40
17208;DHT22;8720;48.488;9.202;2022-12-07T08:57:51;5.80;58.10
17208;DHT22;8720;48.488;9.202;2022-12-07T09:00:19;5.90;57.50
17208;DHT22;8720;48.488;9.202;2022-12-07T09:02:47;6.00;57.40
17208;DHT22;8720;48.488;9.202;2022-12-07T09:05:14;6.00;57.30
17208;DHT22;8720;48.488;9.202;2022-12-07T09:07:42;6.10;57.20
17208;DHT22;8720;48.488;9.202;2022-12-07T09:10:12;6.20;57.10
17208;DHT22;8720;48.488;9.202;2022-12-07T09:12:39;6.20;56.90
17208;DHT22;8720;48.488;9.202;2022-12-07T09:15:07;6.30;56.90
17208;DHT22;8720;48.488;9.202;2022-12-07T09:17:35;6.40;56.80
17208;DHT22;8720;48.488;9.202;2022-12-07T09:20:04;6.50;56.90
17208;DHT22;8720;48.488;9.202;2022-12-07T09:22:32;6.50;56.50
17208;DHT22;8720;48.488;9.202;2022-12-07T09:25:00;6.60;56.40
17208;DHT22;8720;48.488;9.202;2022-12-07T09:27:30;6.60;56.20
17208;DHT22;8720;48.488;9.202;2022-12-07T09:29:57;6.70;56.10
17208;DHT22;8720;48.488;9.202;2022-12-07T09:32:24;6.80;56.10
17208;DHT22;8720;48.488;9.202;2022-12-07T09:34:52;6.80;56.00
17208;DHT22;8720;48.488;9.202;2022-12-07T09:37:19;6.80;56.00
17208;DHT22;8720;48.488;9.202;2022-12-07T09:39:46;6.90;56.20
17208;DHT22;8720;48.488;9.202;2022-12-07T09:42:25;6.90;56.20
17208;DHT22;8720;48.488;9.202;2022-12-07T09:44:56;7.00;55.80
17208;DHT22;8720;48.488;9.202;2022-12-07T09:47:26;7.10;56.60
17208;DHT22;8720;48.488;9.202;2022-12-07T09:49:58;7.10;56.00
17208;DHT22;8720;48.488;9.202;2022-12-07T09:52:30;7.20;55.90
17208;DHT22;8720;48.488;9.202;2022-12-07T09:54:57;7.30;55.90
17208;DHT22;8720;48.488;9.202;2022-12-07T09:57:30;7.30;55.90
17208;DHT22;8720;48.488;9.202;2022-12-07T10:00:04;7.40;55.60
17208;DHT22;8720;48.488;9.202;2022-12-07T10:02:39;7.50;55.60
17208;DHT22;8720;48.488;9.202;2022-12-07T10:05:14;7.50;55.40
17208;DHT22;8720;48.488;9.202;2022-12-07T10:07:44;7.60;55.10
17208;DHT22;8720;48.488;9.202;2022-12-07T10:10:16;7.60;55.30
17208;DHT22;8720;48.488;9.202;2022-12-07T10:12:56;7.70;55.00
17208;DHT22;8720;48.488;9.202;2022-12-07T10:15:48;7.80;54.60
17208;DHT22;8720;48.488;9.202;2022-12-07T10:18:36;7.80;54.20
17208;DHT22;8720;48.488;9.202;2022-12-07T10:21:13;7.90;54.20
17208;DHT22;8720;48.488;9.202;2022-12-07T10:23:43;7.90;54.40
17208;DHT22;8720;48.488;9.202;2022-12-07T10:26:30;8.00;54.60
17208;DHT22;8720;48.488;9.202;2022-12-07T10:28:59;8.00;54.20
17208;DHT22;8720;48.488;9.202;2022-12-07T10:31:30;8.10;54.20
17208;DHT22;8720;48.488;9.202;2022-12-07T10:33:59;8.10;53.80
17208;DHT22;8720;48.488;9.202;2022-12-07T10:36:35;8.20;53.50
17208;DHT22;8720;48.488;9.202;2022-12-07T10:39:11;8.20;53.20
17208;DHT22;8720;48.488;9.202;2022-12-07T10:41:53;8.20;52.80
17208;DHT22;8720;48.488;9.202;2022-12-07T10:44:24;8.30;52.40
17208;DHT22;8720;48.488;9.202;2022-12-07T10:47:13;8.30;53.00
17208;DHT22;8720;48.488;9.202;2022-12-07T10:50:14;8.30;52.30
17208;DHT22;8720;48.488;9.202;2022-12-07T10:53:00;8.40;51.60
17208;DHT22;8720;48.488;9.202;2022-12-07T10:55:49;8.40;51.80
17208;DHT22;8720;48.488;9.202;2022-12-07T10:58:41;8.40;51.80
17208;DHT22;8720;48.488;9.202;2022-12-07T11:01:24;8.50;51.80
17208;DHT22;8720;48.488;9.202;2022-12-07T11:04:21;8.50;52.40
17208;DHT22;8720;48.488;9.202;2022-12-07T11:07:02;8.50;51.10
17208;DHT22;8720;48.488;9.202;2022-12-07T11:12:47;8.50;52.00
17208;DHT22;8720;48.488;9.202;2022-12-07T11:15:27;8.50;51.60
17208;DHT22;8720;48.488;9.202;2022-12-07T11:18:03;8.50;52.00
17208;DHT22;8720;48.488;9.202;2022-12-07T11:20:44;8.60;51.90
17208;DHT22;8720;48.488;9.202;2022-12-07T11:23:27;8.60;51.50
17208;DHT22;8720;48.488;9.202;2022-12-07T11:26:13;8.70;51.40
17208;DHT22;8720;48.488;9.202;2022-12-07T11:29:06;8.70;51.40
17208;DHT22;8720;48.488;9.202;2022-12-07T11:31:56;8.70;51.00
17208;DHT22;8720;48.488;9.202;2022-12-07T11:34:38;8.70;50.90
17208;DHT22;8720;48.488;9.202;2022-12-07T11:37:18;8.80;51.10
17208;DHT22;8720;48.488;9.202;2022-12-07T11:39:51;8.80;51.00
17208;DHT22;8720;48.488;9.202;2022-12-07T11:42:24;8.80;51.20
17208;DHT22;8720;48.488;9.202;2022-12-07T11:44:56;8.80;51.20
17208;DHT22;8720;48.488;9.202;2022-12-07T11:47:30;8.80;51.00
17208;DHT22;8720;48.488;9.202;2022-12-07T11:50:14;8.90;51.20
17208;DHT22;8720;48.488;9.202;2022-12-07T11:52:56;8.80;51.00
17208;DHT22;8720;48.488;9.202;2022-12-07T11:55:40;8.90;51.20
17208;DHT22;8720;48.488;9.202;2022-12-07T11:58:25;8.90;51.00
17208;DHT22;8720;48.488;9.202;2022-12-07T12:01:14;8.90;50.60
17208;DHT22;8720;48.488;9.202;2022-12-07T12:03:56;8.90;50.70
17208;DHT22;8720;48.488;9.202;2022-12-07T12:06:28;8.90;51.00
17208;DHT22;8720;48.488;9.202;2022-12-07T12:09:03;9.00;51.20
17208;DHT22;8720;48.488;9.202;2022-12-07T12:12:05;9.00;50.70
17208;DHT22;8720;48.488;9.202;2022-12-07T12:14:59;8.90;50.30
17208;DHT22;8720;48.488;9.202;2022-12-07T12:17:59;9.00;50.60
17208;DHT22;8720;48.488;9.202;2022-12-07T12:20:43;9.00;50.20
17208;DHT22;8720;48.488;9.202;2022-12-07T12:23:17;9.00;50.50
17208;DHT22;8720;48.488;9.202;2022-12-07T12:25:50;9.00;50.40
17208;DHT22;8720;48.488;9.202;2022-12-07T12:28:24;9.00;50.40
17208;DHT22;8720;48.488;9.202;2022-12-07T12:31:07;9.00;50.20
17208;DHT22;8720;48.488;9.202;2022-12-07T12:33:43;9.00;50.00
17208;DHT22;8720;48.488;9.202;2022-12-07T12:36:22;9.00;50.30
17208;DHT22;8720;48.488;9.202;2022-12-07T12:39:09;9.00;49.90
17208;DHT22;8720;48.488;9.202;2022-12-07T12:41:57;9.00;49.50
17208;DHT22;8720;48.488;9.202;2022-12-07T12:45:17;9.10;49.60
17208;DHT22;8720;48.488;9.202;2022-12-07T12:48:09;9.10;49.50
17208;DHT22;8720;48.488;9.202;2022-12-07T12:54:10;9.00;49.60
17208;DHT22;8720;48.488;9.202;2022-12-07T12:56:48;9.00;50.40
17208;DHT22;8720;48.488;9.202;2022-12-07T12:59:26;9.00;50.00
17208;DHT22;8720;48.488;9.202;2022-12-07T13:02:09;9.10;50.40
17208;DHT22;8720;48.488;9.202;2022-12-07T13:04:52;9.10;49.80
17208;DHT22;8720;48.488;9.202;2022-12-07T13:10:44;9.10;49.60
17208;DHT22;8720;48.488;9.202;2022-12-07T13:13:41;9.10;50.00
17208;DHT22;8720;48.488;9.202;2022-12-07T13:16:38;9.10;49.50
17208;DHT22;8720;48.488;9.202;2022-12-07T13:22:46;9.10;49.60
17208;DHT22;8720;48.488;9.202;2022-12-07T13:25:29;9.10;49.50
17208;DHT22;8720;48.488;9.202;2022-12-07T13:28:10;9.10;49.90
17208;DHT22;8720;48.488;9.202;2022-12-07T13:30:47;9.10;49.70
17208;DHT22;8720;48.488;9.202;2022-12-07T13:33:43;9.10;50.00
17208;DHT22;8720;48.488;9.202;2022-12-07T13:36:19;9.10;50.10
17208;DHT22;8720;48.488;9.202;2022-12-07T13:38:54;9.10;49.90
17208;DHT22;8720;48.488;9.202;2022-12-07T13:41:25;9.10;50.00
17208;DHT22;8720;48.488;9.202;2022-12-07T13:44:00;9.10;50.10
17208;DHT22;8720;48.488;9.202;2022-12-07T13:46:41;9.10;49.90
17208;DHT22;8720;48.488;9.202;2022-12-07T13:49:19;9.10;49.70
17208;DHT22;8720;48.488;9.202;2022-12-07T13:51:49;9.10;49.90
17208;DHT22;8720;48.488;9.202;2022-12-07T13:54:17;9.10;50.00
17208;DHT22;8720;48.488;9.202;2022-12-07T13:56:48;9.10;50.00
17208;DHT22;8720;48.488;9.202;2022-12-07T13:59:19;9.10;50.00
17208;DHT22;8720;48.488;9.202;2022-12-07T14:01:50;9.10;50.00
17208;DHT22;8720;48.488;9.202;2022-12-07T14:04:30;9.00;49.80
17208;DHT22;8720;48.488;9.202;2022-12-07T14:07:00;9.00;49.40
17208;DHT22;8720;48.488;9.202;2022-12-07T14:09:57;9.00;49.90
17208;DHT22;8720;48.488;9.202;2022-12-07T14:12:26;9.00;49.70
17208;DHT22;8720;48.488;9.202;2022-12-07T14:14:57;9.00;50.00
17208;DHT22;8720;48.488;9.202;2022-12-07T14:17:28;9.00;50.10
17208;DHT22;8720;48.488;9.202;2022-12-07T14:19:56;8.90;49.90
17208;DHT22;8720;48.488;9.202;2022-12-07T14:22:28;8.90;50.00
17208;DHT22;8720;48.488;9.202;2022-12-07T14:25:09;8.90;49.90
17208;DHT22;8720;48.488;9.202;2022-12-07T14:27:49;8.90;49.80
17208;DHT22;8720;48.488;9.202;2022-12-07T14:30:22;8.90;49.80
17208;DHT22;8720;48.488;9.202;2022-12-07T14:32:54;8.90;50.10
17208;DHT22;8720;48.488;9.202;2022-12-07T14:35:24;8.90;50.00
17208;DHT22;8720;48.488;9.202;2022-12-07T14:37:52;8.80;50.10
17208;DHT22;8720;48.488;9.202;2022-12-07T14:40:21;8.80;50.10
17208;DHT22;8720;48.488;9.202;2022-12-07T14:42:52;8.80;50.00
17208;DHT22;8720;48.488;9.202;2022-12-07T14:45:23;8.80;50.00
17208;DHT22;8720;48.488;9.202;2022-12-07T14:47:52;8.80;50.10
17208;DHT22;8720;48.488;9.202;2022-12-07T14:50:20;8.70;50.10
17208;DHT22;8720;48.488;9.202;2022-12-07T14:52:51;8.70;50.20
17208;DHT22;8720;48.488;9.202;2022-12-07T14:55:24;8.70;50.20
17208;DHT22;8720;48.488;9.202;2022-12-07T14:57:54;8.70;50.30
17208;DHT22;8720;48.488;9.202;2022-12-07T15:00:23;8.70;50.30
17208;DHT22;8720;48.488;9.202;2022-12-07T15:02:54;8.60;50.30
17208;DHT22;8720;48.488;9.202;2022-12-07T15:05:22;8.60;50.20
17208;DHT22;8720;48.488;9.202;2022-12-07T15:07:50;8.60;50.40
17208;DHT22;8720;48.488;9.202;2022-12-07T15:10:20;8.60;50.40
17208;DHT22;8720;48.488;9.202;2022-12-07T15:12:49;8.60;50.40
17208;DHT22;8720;48.488;9.202;2022-12-07T15:15:16;8.50;50.50
17208;DHT22;8720;48.488;9.202;2022-12-07T15:17:44;8.50;50.60
17208;DHT22;8720;48.488;9.202;2022-12-07T15:20:14;8.50;50.70
17208;DHT22;8720;48.488;9.202;2022-12-07T15:22:42;8.50;50.50
17208;DHT22;8720;48.488;9.202;2022-12-07T15:25:12;8.50;50.70
17208;DHT22;8720;48.488;9.202;2022-12-07T15:27:40;8.40;50.70
17208;DHT22;8720;48.488;9.202;2022-12-07T15:30:08;8.40;50.70
17208;DHT22;8720;48.488;9.202;2022-12-07T15:32:36;8.40;50.80
17208;DHT22;8720;48.488;9.202;2022-12-07T15:35:04;8.40;51.50
17208;DHT22;8720;48.488;9.202;2022-12-07T15:37:33;8.40;50.90
17208;DHT22;8720;48.488;9.202;2022-12-07T15:40:00;8.40;50.80
17208;DHT22;8720;48.488;9.202;2022-12-07T15:42:27;8.40;50.90
17208;DHT22;8720;48.488;9.202;2022-12-07T15:44:55;8.40;51.00
17208;DHT22;8720;48.488;9.202;2022-12-07T15:47:30;8.40;51.10
17208;DHT22;8720;48.488;9.202;2022-12-07T15:49:58;8.30;51.00
17208;DHT22;8720;48.488;9.202;2022-12-07T15:52:25;8.30;51.00
17208;DHT22;8720;48.488;9.202;2022-12-07T15:54:54;8.30;51.10
17208;DHT22;8720;48.488;9.202;2022-12-07T15:57:22;8.30;51.00
17208;DHT22;8720;48.488;9.202;2022-12-07T15:59:49;8.30;51.20
17208;DHT22;8720;48.488;9.202;2022-12-07T16:02:17;8.20;51.10
17208;DHT22;8720;48.488;9.202;2022-12-07T16:04:44;8.20;51.10
17208;DHT22;8720;48.488;9.202;2022-12-07T16:07:11;8.20;51.10
17208;DHT22;8720;48.488;9.202;2022-12-07T16:09:41;8.20;51.10
17208;DHT22;8720;48.488;9.202;2022-12-07T16:12:10;8.20;51.20
17208;DHT22;8720;48.488;9.202;2022-12-07T16:14:39;8.10;51.00
17208;DHT22;8720;48.488;9.202;2022-12-07T16:17:08;8.00;51.00
17208;DHT22;8720;48.488;9.202;2022-12-07T16:19:37;8.00;51.10
17208;DHT22;8720;48.488;9.202;2022-12-07T16:22:05;7.90;51.20
17208;DHT22;8720;48.488;9.202;2022-12-07T16:24:32;7.80;51.20
17208;DHT22;8720;48.488;9.202;2022-12-07T16:27:00;7.80;51.20
17208;DHT22;8720;48.488;9.202;2022-12-07T16:29:28;7.70;51.30
17208;DHT22;8720;48.488;9.202;2022-12-07T16:31:56;7.70;51.30
17208;DHT22;8720;48.488;9.202;2022-12-07T16:34:23;7.60;51.40
17208;DHT22;8720;48.488;9.202;2022-12-07T16:36:50;7.60;51.50
17208;DHT22;8720;48.488;9.202;2022-12-07T16:39:17;7.50;51.50
17208;DHT22;8720;48.488;9.202;2022-12-07T16:41:45;7.50;51.70
17208;DHT22;8720;48.488;9.202;2022-12-07T16:44:12;7.50;51.80
17208;DHT22;8720;48.488;9.202;2022-12-07T16:46:41;7.50;51.90
17208;DHT22;8720;48.488;9.202;2022-12-07T16:49:12;7.40;51.80
17208;DHT22;8720;48.488;9.202;2022-12-07T16:51:40;7.40;51.70
17208;DHT22;8720;48.488;9.202;2022-12-07T16:54:09;7.40;51.80
17208;DHT22;8720;48.488;9.202;2022-12-07T16:56:38;7.30;51.80